DLH2LM EDDC-EDDC

Flight info

Callsign DLH2LM
Flight time 0h 18m
Altitude
Route
Aircraft A20N

Departure

Time 2026-05-05 18:11
Airport Dresden Airport (EDDC)

Arrival

Time 2026-05-05 18:30
Airport Dresden Airport (EDDC)
Time Latitude Longitude Altitude Speed Heading
2026-05-05 17:58 51.12746 13.76778 748 ft 0 kts 41°
2026-05-05 18:04 51.12741 13.76771 752 ft 2 kts 41°
2026-05-05 18:04 51.12729 13.76754 748 ft 2 kts 41°
2026-05-05 18:05 51.12722 13.76744 747 ft 0 kts 41°
2026-05-05 18:05 51.12709 13.76726 748 ft 4 kts 41°
2026-05-05 18:05 51.12692 13.76705 749 ft 1 kts 358°
2026-05-05 18:05 51.12683 13.76708 750 ft 1 kts 312°
2026-05-05 18:06 51.12676 13.76726 749 ft 2 kts 315°
2026-05-05 18:06 51.12672 13.76732 749 ft 2 kts 310°
2026-05-05 18:06 51.12670 13.76735 749 ft 0 kts 310°
2026-05-05 18:08 51.12687 13.76703 750 ft 7 kts 309°
2026-05-05 18:08 51.12732 13.76616 749 ft 13 kts 311°
2026-05-05 18:09 51.12799 13.76497 750 ft 13 kts 312°
2026-05-05 18:09 51.12789 13.76390 746 ft 13 kts 221°
2026-05-05 18:09 51.12717 13.76290 749 ft 13 kts 221°
2026-05-05 18:09 51.12637 13.76179 754 ft 16 kts 221°
2026-05-05 18:10 51.12592 13.76032 756 ft 17 kts 296°
2026-05-05 18:10 51.12639 13.75946 753 ft 8 kts 313°
2026-05-05 18:10 51.12682 13.75870 756 ft 11 kts 311°
2026-05-05 18:10 51.12751 13.75860 756 ft 14 kts 40°
2026-05-05 18:11 51.12891 13.76052 747 ft 58 kts 40°
2026-05-05 18:11 51.13408 13.76761 737 ft 133 kts 41°
2026-05-05 18:11 51.14155 13.77811 1274 ft 147 kts 41°
2026-05-05 18:11 51.14934 13.78939 1993 ft 160 kts 42°
2026-05-05 18:12 51.15911 13.79995 2262 ft 173 kts 21°
2026-05-05 18:12 51.17107 13.80066 2307 ft 181 kts 348°
2026-05-05 18:12 51.18183 13.79001 2334 ft 187 kts 316°
2026-05-05 18:12 51.18752 13.77117 2346 ft 196 kts 283°
2026-05-05 18:13 51.18610 13.74957 2358 ft 199 kts 249°
2026-05-05 18:13 51.17790 13.73188 2370 ft 200 kts 223°
2026-05-05 18:13 51.17114 13.72193 2371 ft 197 kts 221°
2026-05-05 18:13 51.15758 13.70236 2353 ft 199 kts 221°
2026-05-05 18:14 51.14718 13.68761 2348 ft 200 kts 221°
2026-05-05 18:14 51.14036 13.67747 2337 ft 203 kts 222°
2026-05-05 18:14 51.12998 13.66191 2331 ft 203 kts 220°
2026-05-05 18:14 51.11823 13.65156 2242 ft 191 kts 192°
2026-05-05 18:15 51.10577 13.65161 2124 ft 166 kts 158°
2026-05-05 18:15 51.09699 13.66114 2001 ft 148 kts 121°
2026-05-05 18:15 51.09405 13.67555 1901 ft 130 kts 89°
2026-05-05 18:15 51.09386 13.68944 1788 ft 124 kts 86°
2026-05-05 18:16 51.09440 13.70317 1689 ft 123 kts 77°
2026-05-05 18:16 51.09733 13.71577 1547 ft 123 kts 57°
2026-05-05 18:16 51.10307 13.72572 1394 ft 122 kts 39°
2026-05-05 18:16 51.10959 13.73420 1225 ft 124 kts 38°
2026-05-05 18:17 51.11622 13.74310 1068 ft 123 kts 40°
2026-05-05 18:17 51.12262 13.75185 877 ft 121 kts 40°
2026-05-05 18:17 51.12891 13.76048 755 ft 116 kts 40°
2026-05-05 18:17 51.13478 13.76858 733 ft 128 kts 41°
2026-05-05 18:18 51.14272 13.77960 1369 ft 165 kts 40°
2026-05-05 18:18 51.15208 13.79246 2245 ft 184 kts 40°
2026-05-05 18:18 51.16288 13.80106 2294 ft 174 kts 12°
2026-05-05 18:18 51.17513 13.79845 2330 ft 182 kts 339°
2026-05-05 18:19 51.18468 13.78480 2354 ft 190 kts 305°
2026-05-05 18:19 51.18799 13.76447 2368 ft 199 kts 271°
2026-05-05 18:19 51.18389 13.74321 2372 ft 202 kts 237°
2026-05-05 18:19 51.17413 13.72699 2379 ft 203 kts 223°
2026-05-05 18:20 51.16409 13.71177 2367 ft 199 kts 222°
2026-05-05 18:20 51.15370 13.69659 2346 ft 204 kts 221°
2026-05-05 18:20 51.14327 13.68178 2326 ft 201 kts 221°
2026-05-05 18:20 51.13273 13.66660 2308 ft 203 kts 220°
2026-05-05 18:21 51.12081 13.65586 2269 ft 188 kts 193°
2026-05-05 18:21 51.10866 13.65571 2168 ft 173 kts 160°
2026-05-05 18:21 51.09877 13.66542 2063 ft 163 kts 126°
2026-05-05 18:21 51.09428 13.68108 1957 ft 154 kts 96°
2026-05-05 18:22 51.09294 13.69713 1806 ft 137 kts 92°
2026-05-05 18:22 51.09405 13.71052 1661 ft 118 kts 61°
2026-05-05 18:22 51.09958 13.72054 1503 ft 123 kts 42°
2026-05-05 18:22 51.10622 13.72931 1364 ft 124 kts 39°
2026-05-05 18:23 51.11289 13.73852 1173 ft 128 kts 40°
2026-05-05 18:23 51.11965 13.74768 959 ft 126 kts 40°
2026-05-05 18:23 51.12634 13.75700 782 ft 125 kts 40°
2026-05-05 18:23 51.13229 13.76520 741 ft 103 kts 41°
2026-05-05 18:24 51.13862 13.77384 805 ft 151 kts 41°
2026-05-05 18:24 51.14710 13.78589 1667 ft 178 kts 41°
2026-05-05 18:24 51.15711 13.79887 2240 ft 180 kts 30°
2026-05-05 18:24 51.16893 13.80273 2283 ft 179 kts 357°
2026-05-05 18:25 51.18032 13.79486 2327 ft 187 kts 323°
2026-05-05 18:25 51.18579 13.78377 2353 ft 192 kts 300°
2026-05-05 18:25 51.18739 13.75554 2345 ft 201 kts 255°
2026-05-05 18:25 51.18009 13.73685 2350 ft 201 kts 223°
2026-05-05 18:26 51.16992 13.72180 2367 ft 199 kts 221°
2026-05-05 18:26 51.15947 13.70706 2377 ft 201 kts 220°
2026-05-05 18:26 51.14888 13.69267 2384 ft 202 kts 220°
2026-05-05 18:26 51.13850 13.67735 2337 ft 203 kts 221°
2026-05-05 18:27 51.12766 13.66303 2263 ft 203 kts 208°
2026-05-05 18:27 51.11470 13.65692 2130 ft 182 kts 178°
2026-05-05 18:27 51.10310 13.66162 2005 ft 171 kts 144°
2026-05-05 18:27 51.09535 13.67497 1925 ft 163 kts 111°
2026-05-05 18:28 51.09589 13.70784 1679 ft 132 kts 65°
2026-05-05 18:28 51.10042 13.71924 1492 ft 121 kts 50°
2026-05-05 18:28 51.10628 13.72931 1325 ft 126 kts 43°
2026-05-05 18:29 51.11291 13.73845 1173 ft 127 kts 39°
2026-05-05 18:29 51.11960 13.74777 977 ft 127 kts 38°
2026-05-05 18:29 51.12624 13.75689 792 ft 122 kts 40°
2026-05-05 18:29 51.13191 13.76462 745 ft 77 kts 40°
2026-05-05 18:30 51.13364 13.76725 737 ft 14 kts 77°
2026-05-05 18:30 51.13314 13.76842 736 ft 7 kts 131°
2026-05-05 18:30 51.13261 13.76939 735 ft 15 kts 131°
2026-05-05 18:30 51.13253 13.76954 735 ft 0 kts 130°
2026-05-05 18:31 51.13245 13.76971 735 ft 4 kts 127°
2026-05-05 18:31 51.13225 13.76987 736 ft 3 kts 185°
2026-05-05 18:31 51.13157 13.76897 739 ft 20 kts 221°
2026-05-05 18:31 51.13037 13.76733 744 ft 25 kts 220°
2026-05-05 18:32 51.12902 13.76548 747 ft 24 kts 221°
2026-05-05 18:32 51.12812 13.76424 750 ft 11 kts 207°
2026-05-05 18:32 51.12767 13.76447 748 ft 7 kts 131°
2026-05-05 18:32 51.12724 13.76527 750 ft 10 kts 133°
2026-05-05 18:33 51.12677 13.76507 751 ft 8 kts 219°
2026-05-05 18:33 51.12664 13.76489 752 ft 0 kts 219°